createdAt,value
2018-05-25T00:02:24.504Z,86.42
2018-05-25T00:04:53.189Z,86.75
2018-05-25T00:07:21.970Z,87.02
2018-05-25T00:09:50.757Z,87.05
2018-05-25T00:12:19.758Z,87.26
2018-05-25T00:14:48.638Z,87.03
2018-05-25T00:17:17.375Z,86.95
2018-05-25T00:19:46.142Z,87.00
2018-05-25T00:22:14.901Z,87.04
2018-05-25T00:24:44.730Z,87.14
2018-05-25T00:27:13.433Z,87.23
2018-05-25T00:29:42.130Z,87.18
2018-05-25T00:32:10.862Z,87.40
2018-05-25T00:34:39.489Z,87.50
2018-05-25T00:37:08.134Z,87.73
2018-05-25T00:39:36.999Z,88.39
2018-05-25T00:42:05.764Z,88.67
2018-05-25T00:44:34.602Z,88.37
2018-05-25T00:47:03.489Z,88.07
2018-05-25T00:49:32.277Z,88.17
2018-05-25T00:52:01.529Z,88.45
2018-05-25T00:54:30.362Z,88.82
2018-05-25T00:56:59.355Z,88.47
2018-05-25T00:59:28.040Z,87.77
2018-05-25T01:01:56.645Z,87.61
2018-05-25T01:04:25.420Z,87.79
2018-05-25T01:06:54.128Z,87.54
2018-05-25T01:09:22.778Z,87.43
2018-05-25T01:11:51.670Z,88.17
2018-05-25T01:14:20.460Z,88.43
2018-05-25T01:16:49.247Z,88.40
2018-05-25T01:19:18.035Z,88.63
2018-05-25T01:21:46.719Z,88.56
2018-05-25T01:24:15.619Z,88.60
2018-05-25T01:26:44.917Z,88.67
2018-05-25T01:29:13.700Z,88.54
2018-05-25T01:31:42.372Z,89.02
2018-05-25T01:34:11.097Z,89.36
2018-05-25T01:36:39.953Z,88.73
2018-05-25T01:39:08.750Z,88.60
2018-05-25T01:41:37.633Z,88.69
2018-05-25T01:44:06.392Z,89.00
2018-05-25T01:46:35.883Z,89.07
2018-05-25T01:49:04.711Z,89.15
2018-05-25T01:51:33.634Z,89.25
2018-05-25T01:54:02.330Z,89.09
2018-05-25T01:56:31.179Z,89.02
2018-05-25T01:59:00.015Z,89.17
2018-05-25T02:01:28.752Z,89.33
2018-05-25T02:03:57.639Z,89.25
2018-05-25T02:06:26.336Z,89.36
2018-05-25T02:08:56.241Z,89.10
2018-05-25T02:11:25.028Z,88.79
2018-05-25T02:13:53.829Z,88.62
2018-05-25T02:16:22.600Z,88.90
2018-05-25T02:18:51.389Z,88.75
2018-05-25T02:21:20.077Z,88.71
2018-05-25T02:23:48.753Z,88.80
2018-05-25T02:26:17.399Z,89.07
2018-05-25T02:28:46.235Z,88.96
2018-05-25T02:31:15.023Z,88.86
2018-05-25T02:33:43.709Z,89.06
2018-05-25T02:36:12.378Z,88.64
2018-05-25T02:38:41.618Z,88.42
2018-05-25T02:41:10.474Z,88.81
2018-05-25T02:43:39.262Z,88.57
2018-05-25T02:46:08.052Z,88.64
2018-05-25T02:48:37.731Z,89.04
2018-05-25T02:51:06.495Z,89.58
2018-05-25T02:53:35.231Z,89.69
2018-05-25T02:56:05.986Z,89.80
2018-05-25T02:58:34.920Z,89.95
2018-05-25T03:01:03.745Z,90.01
2018-05-25T03:03:32.639Z,89.91
2018-05-25T03:06:01.523Z,89.43
2018-05-25T03:08:30.214Z,88.58
2018-05-25T03:10:58.951Z,88.65
2018-05-25T03:13:27.746Z,88.48
2018-05-25T03:15:56.470Z,88.28
2018-05-25T03:18:25.331Z,88.07
2018-05-25T03:20:54.249Z,87.58
2018-05-25T03:23:22.927Z,88.26
2018-05-25T03:25:51.926Z,87.99
2018-05-25T03:28:20.712Z,87.64
2018-05-25T03:30:49.462Z,86.62
2018-05-25T03:33:18.288Z,87.35
2018-05-25T03:35:47.003Z,86.87
2018-05-25T03:38:15.667Z,86.04
2018-05-25T03:40:44.458Z,85.42
2018-05-25T03:43:13.234Z,85.35
2018-05-25T03:45:42.025Z,84.71
2018-05-25T03:48:10.615Z,82.64
2018-05-25T03:50:39.389Z,81.93
2018-05-25T03:53:08.065Z,81.00
2018-05-25T03:55:37.453Z,79.40
2018-05-25T03:58:06.265Z,77.91
2018-05-25T04:00:46.962Z,75.78
2018-05-25T04:03:16.608Z,75.62
2018-05-25T04:05:45.426Z,72.84
2018-05-25T04:08:14.317Z,71.83
2018-05-25T04:10:43.015Z,69.31
2018-05-25T04:13:11.812Z,67.02
2018-05-25T04:15:40.785Z,66.04
2018-05-25T04:18:09.569Z,65.70
2018-05-25T04:20:38.378Z,64.27
2018-05-25T04:23:07.238Z,62.35
2018-05-25T04:25:35.933Z,61.66
2018-05-25T04:28:04.720Z,60.29
2018-05-25T04:30:33.405Z,58.77
2018-05-25T04:33:02.193Z,57.53
2018-05-25T04:35:31.051Z,57.51
2018-05-25T04:37:59.773Z,57.69
2018-05-25T04:40:28.611Z,56.25
2018-05-25T04:42:57.418Z,55.51
2018-05-25T04:45:26.711Z,55.23
2018-05-25T04:47:55.532Z,53.92
2018-05-25T04:50:25.137Z,53.34
2018-05-25T04:52:53.838Z,51.43
2018-05-25T04:55:22.538Z,51.55
2018-05-25T04:57:51.298Z,51.66
2018-05-25T05:00:20.082Z,51.52
2018-05-25T05:02:48.762Z,50.22
2018-05-25T05:05:17.558Z,49.63
2018-05-25T05:07:46.185Z,49.21
2018-05-25T05:10:14.930Z,48.22
2018-05-25T05:12:43.714Z,49.10
2018-05-25T05:15:12.573Z,49.79
2018-05-25T05:17:41.535Z,47.80
2018-05-25T05:20:10.380Z,47.84
2018-05-25T05:22:39.048Z,47.83
2018-05-25T05:25:07.752Z,47.54
2018-05-25T05:27:37.457Z,47.22
2018-05-25T05:30:06.354Z,46.46
2018-05-25T05:32:35.651Z,47.12
2018-05-25T05:35:04.442Z,46.74
2018-05-25T05:37:33.328Z,45.59
2018-05-25T05:40:01.982Z,45.15
2018-05-25T05:42:30.802Z,44.29
2018-05-25T05:44:59.586Z,43.42
2018-05-25T05:47:28.267Z,43.14
2018-05-25T05:49:58.099Z,42.74
2018-05-25T05:52:26.931Z,41.90
2018-05-25T05:54:56.481Z,40.46
2018-05-25T05:57:25.164Z,40.21
2018-05-25T05:59:54.784Z,39.72
2018-05-25T06:02:23.588Z,40.32
2018-05-25T06:04:52.357Z,39.74
2018-05-25T06:07:21.324Z,40.55
2018-05-25T06:09:50.020Z,40.42
2018-05-25T06:12:18.854Z,39.59
2018-05-25T06:14:47.801Z,39.72
2018-05-25T06:17:16.796Z,39.25
2018-05-25T06:19:45.490Z,38.61
2018-05-25T06:22:14.117Z,39.89
2018-05-25T06:24:42.856Z,38.92
2018-05-25T06:27:11.548Z,38.31
2018-05-25T06:29:40.551Z,37.74
2018-05-25T06:32:09.323Z,37.04
2018-05-25T06:34:38.305Z,37.33
2018-05-25T06:37:07.094Z,38.17
2018-05-25T06:39:36.543Z,37.08
2018-05-25T06:42:05.385Z,35.69
2018-05-25T06:44:34.173Z,34.83
2018-05-25T06:47:03.172Z,34.30
2018-05-25T06:49:31.951Z,34.17
2018-05-25T06:52:00.748Z,33.05
2018-05-25T06:54:30.534Z,34.34
2018-05-25T06:56:59.444Z,34.49
2018-05-25T06:59:28.138Z,34.00
2018-05-25T07:01:56.812Z,33.78
2018-05-25T07:04:25.525Z,34.66
2018-05-25T07:06:54.138Z,34.21
2018-05-25T07:09:22.832Z,34.62
2018-05-25T07:11:51.655Z,32.59
2018-05-25T07:14:20.441Z,32.55
2018-05-25T07:16:49.337Z,31.67
2018-05-25T07:19:18.096Z,32.18
2018-05-25T07:21:46.868Z,31.50
2018-05-25T07:24:15.492Z,31.40
2018-05-25T07:26:44.179Z,31.97
2018-05-25T07:29:13.886Z,31.03
2018-05-25T07:31:43.701Z,31.94
2018-05-25T07:34:12.510Z,30.20
2018-05-25T07:36:41.268Z,30.79
2018-05-25T07:39:10.057Z,31.13
2018-05-25T07:41:38.745Z,29.76
2018-05-25T07:44:07.632Z,29.65
2018-05-25T07:46:36.534Z,30.40
2018-05-25T07:49:06.032Z,29.46
2018-05-25T07:51:34.813Z,30.79
2018-05-25T07:54:03.502Z,29.78
2018-05-25T07:56:32.288Z,29.84
2018-05-25T07:59:00.970Z,28.61
2018-05-25T08:01:29.860Z,28.97
2018-05-25T08:03:58.509Z,28.23
2018-05-25T08:06:27.344Z,27.84
2018-05-25T08:08:56.121Z,27.48
2018-05-25T08:11:25.014Z,26.96
2018-05-25T08:13:53.798Z,26.26
2018-05-25T08:16:22.541Z,26.47
2018-05-25T08:18:51.481Z,26.14
2018-05-25T08:21:20.343Z,25.90
2018-05-25T08:23:49.307Z,25.58
2018-05-25T08:26:18.045Z,26.04
2018-05-25T08:28:46.831Z,26.12
2018-05-25T08:31:15.938Z,30.12
2018-05-25T08:33:44.712Z,29.03
2018-05-25T08:36:13.503Z,28.26
2018-05-25T08:38:42.286Z,29.58
2018-05-25T08:41:10.996Z,26.99
2018-05-25T08:43:40.270Z,27.50
2018-05-25T08:46:08.956Z,26.09
2018-05-25T08:48:38.237Z,25.46
2018-05-25T08:51:06.937Z,24.53
2018-05-25T08:53:35.625Z,25.69
2018-05-25T08:56:04.734Z,27.51
2018-05-25T08:58:33.478Z,27.81
2018-05-25T09:01:02.768Z,25.10
2018-05-25T09:03:31.599Z,24.60
2018-05-25T09:06:00.357Z,23.88
2018-05-25T09:08:29.275Z,25.56
2018-05-25T09:10:58.167Z,24.93
2018-05-25T09:13:26.952Z,24.79
2018-05-25T09:15:55.641Z,23.20
2018-05-25T09:18:24.241Z,22.87
2018-05-25T09:20:54.025Z,24.37
2018-05-25T09:23:22.813Z,24.41
2018-05-25T09:25:51.497Z,24.67
2018-05-25T09:28:20.392Z,22.78
2018-05-25T09:30:49.095Z,23.02
2018-05-25T09:33:17.774Z,24.94
2018-05-25T09:35:46.547Z,23.75
2018-05-25T09:38:15.435Z,24.40
2018-05-25T09:40:44.222Z,23.34
2018-05-25T09:43:13.024Z,22.89
2018-05-25T09:45:41.896Z,24.23
2018-05-25T09:48:10.647Z,24.08
2018-05-25T09:50:39.379Z,24.12
2018-05-25T09:53:08.061Z,24.22
2018-05-25T09:55:37.059Z,23.84
2018-05-25T09:58:05.944Z,23.86
2018-05-25T10:00:34.726Z,22.44
2018-05-25T10:03:03.409Z,22.61
2018-05-25T10:05:32.097Z,22.66
2018-05-25T10:08:00.887Z,22.33
2018-05-25T10:10:29.601Z,21.15
2018-05-25T10:12:58.458Z,21.41
2018-05-25T10:15:27.130Z,22.37
2018-05-25T10:17:55.955Z,20.90
2018-05-25T10:20:24.725Z,22.17
2018-05-25T10:22:53.507Z,20.52
2018-05-25T10:25:22.397Z,22.30
2018-05-25T10:27:51.073Z,22.87
2018-05-25T10:30:20.009Z,23.15
2018-05-25T10:32:48.762Z,23.43
2018-05-25T10:35:17.727Z,23.06
2018-05-25T10:37:46.541Z,20.72
2018-05-25T10:40:15.190Z,20.85
2018-05-25T10:42:43.906Z,20.83
2018-05-25T10:45:12.594Z,22.07
2018-05-25T10:47:42.184Z,21.24
2018-05-25T10:50:10.893Z,21.93
2018-05-25T10:52:39.673Z,22.19
2018-05-25T10:55:08.650Z,23.75
2018-05-25T10:57:37.272Z,21.97
2018-05-25T11:00:06.700Z,24.45
2018-05-25T11:02:35.630Z,23.54
2018-05-25T11:05:04.429Z,23.96
2018-05-25T11:07:33.107Z,23.70
2018-05-25T11:10:01.806Z,22.66
2018-05-25T11:12:30.792Z,22.45
2018-05-25T11:14:59.577Z,23.44
2018-05-25T11:17:28.468Z,23.00
2018-05-25T11:19:57.257Z,23.19
2018-05-25T11:22:25.947Z,23.88
2018-05-25T11:24:54.688Z,24.73
2018-05-25T11:27:23.525Z,24.05
2018-05-25T11:29:52.180Z,25.48
2018-05-25T11:32:20.894Z,26.09
2018-05-25T11:34:49.973Z,27.78
2018-05-25T11:37:18.576Z,29.23
2018-05-25T11:39:47.154Z,28.38
2018-05-25T11:42:15.940Z,29.67
2018-05-25T11:44:45.456Z,30.95
2018-05-25T11:47:14.126Z,30.34
2018-05-25T11:49:42.705Z,31.58
2018-05-25T11:52:11.971Z,29.31
2018-05-25T11:54:40.548Z,29.62
2018-05-25T11:57:09.123Z,30.57
2018-05-25T11:59:37.758Z,31.74
2018-05-25T12:02:06.319Z,31.54
2018-05-25T12:04:35.930Z,30.41
2018-05-25T12:07:04.808Z,30.53
2018-05-25T12:09:33.401Z,31.91
2018-05-25T12:12:02.102Z,30.63
2018-05-25T12:14:30.677Z,31.09
2018-05-25T12:16:59.360Z,31.04
2018-05-25T12:19:28.042Z,31.15
2018-05-25T12:21:56.637Z,30.67
2018-05-25T12:24:25.300Z,31.09
2018-05-25T12:26:53.961Z,31.13
2018-05-25T12:29:22.489Z,30.90
2018-05-25T12:31:51.125Z,30.42
2018-05-25T12:34:19.678Z,29.78
2018-05-25T12:36:48.438Z,29.67
2018-05-25T12:39:16.973Z,31.06
2018-05-25T12:41:45.571Z,30.24
2018-05-25T12:44:14.280Z,31.42
2018-05-25T12:46:42.886Z,29.59
2018-05-25T12:49:11.563Z,30.44
2018-05-25T12:51:40.456Z,30.36
2018-05-25T12:54:09.336Z,29.83
2018-05-25T12:56:38.054Z,29.71
2018-05-25T12:59:06.669Z,29.50
2018-05-25T13:01:35.311Z,29.70
2018-05-25T13:04:04.021Z,29.12
2018-05-25T13:06:32.605Z,28.67
2018-05-25T13:09:01.149Z,29.02
2018-05-25T13:11:29.803Z,28.44
2018-05-25T13:13:58.342Z,30.25
2018-05-25T13:16:26.920Z,29.13
2018-05-25T13:18:55.451Z,29.70
2018-05-25T13:21:24.017Z,29.72
2018-05-25T13:23:52.620Z,29.44
2018-05-25T13:26:21.157Z,29.54
2018-05-25T13:28:49.726Z,29.99
2018-05-25T13:31:18.363Z,29.63
2018-05-25T13:33:46.909Z,30.72
2018-05-25T13:36:15.470Z,30.13
2018-05-25T13:38:44.033Z,29.59
2018-05-25T13:41:12.625Z,30.41
2018-05-25T13:43:41.847Z,29.55
2018-05-25T13:46:10.504Z,28.60
2018-05-25T13:48:39.165Z,28.59
2018-05-25T13:51:08.417Z,29.00
2018-05-25T13:53:37.008Z,29.45
2018-05-25T13:56:05.567Z,28.49
2018-05-25T13:58:34.215Z,28.58
2018-05-25T14:01:02.740Z,28.98
2018-05-25T14:03:31.376Z,29.29
2018-05-25T14:06:00.000Z,30.06
2018-05-25T14:08:28.656Z,29.48
2018-05-25T14:10:57.924Z,28.71
2018-05-25T14:13:26.502Z,28.50
2018-05-25T14:15:55.755Z,28.64
2018-05-25T14:18:24.303Z,28.75
2018-05-25T14:20:53.309Z,30.03
2018-05-25T14:23:21.833Z,30.18
2018-05-25T14:25:50.476Z,30.56
2018-05-25T14:28:19.159Z,29.91
2018-05-25T14:30:47.725Z,29.83
2018-05-25T14:33:16.255Z,30.17
2018-05-25T14:35:44.917Z,29.93
2018-05-25T14:38:13.461Z,30.53
2018-05-25T14:40:42.026Z,29.77
2018-05-25T14:43:10.537Z,29.96
2018-05-25T14:45:39.063Z,29.58
2018-05-25T14:48:07.605Z,30.10
2018-05-25T14:50:36.942Z,29.52
2018-05-25T14:53:05.542Z,29.66
2018-05-25T14:55:34.186Z,29.06
2018-05-25T14:58:02.771Z,30.89
2018-05-25T15:00:31.441Z,30.54
2018-05-25T15:02:59.970Z,30.39
2018-05-25T15:05:28.503Z,30.80
2018-05-25T15:07:57.017Z,32.04
2018-05-25T15:10:25.605Z,32.78
2018-05-25T15:12:54.125Z,34.56
2018-05-25T15:15:23.294Z,34.58
2018-05-25T15:17:51.837Z,35.25
2018-05-25T15:20:20.377Z,35.93
2018-05-25T15:22:49.761Z,35.99
2018-05-25T15:25:19.114Z,36.49
2018-05-25T15:27:47.706Z,36.66
2018-05-25T15:30:16.215Z,37.21
2018-05-25T15:32:44.772Z,37.69
2018-05-25T15:35:13.370Z,37.51
2018-05-25T15:37:41.941Z,37.47
2018-05-25T15:40:10.450Z,37.61
2018-05-25T15:42:39.814Z,37.85
2018-05-25T15:45:08.996Z,37.72
2018-05-25T15:47:37.797Z,38.62
2018-05-25T15:50:06.384Z,37.91
2018-05-25T15:52:34.911Z,38.26
2018-05-25T15:55:04.450Z,38.25
2018-05-25T15:57:32.956Z,37.63
2018-05-25T16:00:01.582Z,37.71
2018-05-25T16:02:30.803Z,38.10
2018-05-25T16:04:59.521Z,36.92
2018-05-25T16:07:28.049Z,36.99
2018-05-25T16:09:57.180Z,36.77
2018-05-25T16:12:25.882Z,37.10
2018-05-25T16:14:54.778Z,38.21
2018-05-25T16:17:23.299Z,38.28
2018-05-25T16:19:51.929Z,38.95
2018-05-25T16:22:20.466Z,39.12
2018-05-25T16:24:49.099Z,39.50
2018-05-25T16:27:17.741Z,40.21
2018-05-25T16:29:46.303Z,40.74
2018-05-25T16:32:15.049Z,42.91
2018-05-25T16:34:43.837Z,45.11
2018-05-25T16:37:12.517Z,45.40
2018-05-25T16:39:41.040Z,45.45
2018-05-25T16:42:09.618Z,45.78
2018-05-25T16:44:38.116Z,45.69
2018-05-25T16:47:07.410Z,46.04
2018-05-25T16:49:36.188Z,46.44
2018-05-25T16:52:04.770Z,46.57
2018-05-25T16:54:33.293Z,46.51
2018-05-25T16:57:01.826Z,47.28
2018-05-25T16:59:30.355Z,47.47
2018-05-25T17:01:58.948Z,47.12
2018-05-25T17:04:27.554Z,47.32
2018-05-25T17:06:56.046Z,47.65
2018-05-25T17:09:24.541Z,48.03
2018-05-25T17:11:53.120Z,48.25
2018-05-25T17:14:21.634Z,47.97
2018-05-25T17:16:50.173Z,48.18
2018-05-25T17:19:18.824Z,48.16
2018-05-25T17:21:47.363Z,48.13
2018-05-25T17:24:16.159Z,49.04
2018-05-25T17:26:44.680Z,49.02
2018-05-25T17:29:13.220Z,49.15
2018-05-25T17:31:41.852Z,49.70
2018-05-25T17:34:10.444Z,49.54
2018-05-25T17:36:39.011Z,49.77
2018-05-25T17:39:07.577Z,49.88
2018-05-25T17:41:36.133Z,50.05
2018-05-25T17:44:04.665Z,51.07
2018-05-25T17:46:33.189Z,51.93
2018-05-25T17:49:01.831Z,52.23
2018-05-25T17:51:30.425Z,52.10
2018-05-25T17:53:59.614Z,52.04
2018-05-25T17:56:28.168Z,51.38
2018-05-25T17:58:56.694Z,51.75
2018-05-25T18:01:25.291Z,51.81
2018-05-25T18:03:53.850Z,52.36
2018-05-25T18:06:22.359Z,52.38
2018-05-25T18:08:53.044Z,53.01
2018-05-25T18:11:21.533Z,54.02
2018-05-25T18:13:50.204Z,55.12
2018-05-25T18:16:19.018Z,55.41
2018-05-25T18:18:47.534Z,55.17
2018-05-25T18:21:16.168Z,54.92
2018-05-25T18:23:44.819Z,55.02
2018-05-25T18:26:13.424Z,55.34
2018-05-25T18:28:45.240Z,54.83
2018-05-25T18:31:15.515Z,54.50
2018-05-25T18:33:44.810Z,54.55
2018-05-25T18:36:13.501Z,53.51
2018-05-25T18:38:42.065Z,53.82
2018-05-25T18:41:10.650Z,53.70
2018-05-25T18:43:39.236Z,54.16
2018-05-25T18:46:08.856Z,53.86
2018-05-25T18:48:37.985Z,54.25
2018-05-25T18:51:06.475Z,54.48
2018-05-25T18:53:35.113Z,54.50
2018-05-25T18:56:04.300Z,54.66
2018-05-25T18:58:33.868Z,54.75
2018-05-25T19:01:02.372Z,54.55
2018-05-25T19:03:30.921Z,55.21
2018-05-25T19:05:59.665Z,54.61
2018-05-25T19:08:28.456Z,54.33
2018-05-25T19:10:56.942Z,55.00
2018-05-25T19:13:25.441Z,54.71
2018-05-25T19:15:54.004Z,54.39
2018-05-25T19:18:22.546Z,54.56
2018-05-25T19:20:51.331Z,54.50
2018-05-25T19:23:19.905Z,54.80
2018-05-25T19:25:48.430Z,54.95
2018-05-25T19:28:16.988Z,55.48
2018-05-25T19:30:45.597Z,55.73
2018-05-25T19:33:14.157Z,55.56
2018-05-25T19:35:42.730Z,55.81
2018-05-25T19:38:11.271Z,56.16
2018-05-25T19:40:39.857Z,55.59
2018-05-25T19:43:11.605Z,56.30
2018-05-25T19:45:41.652Z,56.95
2018-05-25T19:48:10.262Z,57.28
2018-05-25T19:50:39.589Z,57.86
2018-05-25T19:53:08.165Z,58.36
2018-05-25T19:55:36.733Z,58.37
2018-05-25T19:58:05.644Z,58.65
2018-05-25T20:00:34.182Z,58.84
2018-05-25T20:03:02.761Z,59.32
2018-05-25T20:05:31.270Z,59.41
2018-05-25T20:08:00.516Z,59.56
2018-05-25T20:10:29.209Z,59.69
2018-05-25T20:12:57.884Z,59.93
2018-05-25T20:15:27.051Z,60.00
2018-05-25T20:17:55.547Z,60.30
2018-05-25T20:20:24.314Z,60.82
2018-05-25T20:22:52.876Z,61.38
2018-05-25T20:25:21.360Z,62.02
2018-05-25T20:27:49.856Z,62.20
2018-05-25T20:30:18.410Z,61.88
2018-05-25T20:32:47.644Z,62.12
2018-05-25T20:35:16.240Z,62.77
2018-05-25T20:37:44.801Z,62.85
2018-05-25T20:40:14.015Z,63.19
2018-05-25T20:42:43.095Z,63.62
2018-05-25T20:45:11.785Z,63.26
2018-05-25T20:47:40.362Z,63.43
2018-05-25T20:50:08.946Z,63.30
2018-05-25T20:52:37.629Z,63.72
2018-05-25T20:55:06.211Z,64.41
2018-05-25T20:57:38.134Z,63.48
2018-05-25T21:00:07.516Z,63.46
2018-05-25T21:02:36.144Z,63.13
2018-05-25T21:05:12.002Z,63.32
2018-05-25T21:07:40.760Z,63.30
2018-05-25T21:10:10.824Z,63.62
2018-05-25T21:12:40.210Z,63.89
2018-05-25T21:15:08.774Z,64.38
2018-05-25T21:17:37.975Z,64.76
2018-05-25T21:20:06.843Z,65.39
2018-05-25T21:22:35.423Z,65.61
2018-05-25T21:25:04.043Z,65.75
2018-05-25T21:27:32.696Z,65.83
2018-05-25T21:30:01.329Z,66.24
2018-05-25T21:32:30.988Z,66.20
2018-05-25T21:34:59.767Z,66.13
2018-05-25T21:37:28.587Z,66.64
2018-05-25T21:39:57.143Z,67.25
2018-05-25T21:42:27.181Z,67.49
2018-05-25T21:44:55.831Z,67.33
2018-05-25T21:47:24.416Z,67.50
2018-05-25T21:49:52.977Z,67.56
2018-05-25T21:52:21.481Z,68.12
2018-05-25T21:54:50.264Z,68.11
2018-05-25T21:57:18.801Z,68.49
2018-05-25T21:59:47.431Z,68.88
2018-05-25T22:02:16.131Z,68.96
2018-05-25T22:04:44.678Z,69.33
2018-05-25T22:07:13.387Z,69.60
2018-05-25T22:09:42.742Z,69.73
2018-05-25T22:12:11.873Z,69.64
2018-05-25T22:14:40.459Z,69.70
2018-05-25T22:17:09.072Z,70.27
2018-05-25T22:19:37.586Z,70.43
2018-05-25T22:22:06.142Z,70.82
2018-05-25T22:24:34.789Z,70.92
2018-05-25T22:27:03.449Z,71.41
2018-05-25T22:29:32.166Z,71.56
2018-05-25T22:32:00.774Z,72.20
2018-05-25T22:34:29.434Z,72.11
2018-05-25T22:36:57.981Z,72.06
2018-05-25T22:39:26.829Z,71.89
2018-05-25T22:41:56.634Z,72.16
2018-05-25T22:44:37.121Z,71.92
2018-05-25T22:47:23.561Z,71.96
2018-05-25T22:50:10.209Z,72.00
2018-05-25T22:52:49.900Z,72.61
2018-05-25T22:55:19.240Z,72.94
2018-05-25T22:57:49.341Z,73.08
2018-05-25T23:00:19.491Z,73.55
2018-05-25T23:02:49.397Z,73.54
2018-05-25T23:05:19.229Z,73.89
2018-05-25T23:07:49.346Z,74.26
2018-05-25T23:10:20.318Z,74.38
2018-05-25T23:13:30.559Z,73.68
2018-05-25T23:16:01.445Z,72.51
2018-05-25T23:18:31.674Z,72.22
2018-05-25T23:21:02.025Z,72.17
2018-05-25T23:23:32.846Z,72.38
2018-05-25T23:26:02.971Z,72.66
2018-05-25T23:28:32.884Z,72.83
2018-05-25T23:31:02.977Z,73.14
2018-05-25T23:33:33.541Z,74.23
2018-05-25T23:36:04.181Z,74.43
2018-05-25T23:39:16.389Z,74.40
2018-05-25T23:41:46.438Z,74.42
2018-05-25T23:44:16.519Z,74.49
2018-05-25T23:46:48.700Z,74.62
2018-05-25T23:49:18.770Z,74.95
2018-05-25T23:52:31.588Z,75.57
2018-05-25T23:55:40.072Z,75.61
2018-05-25T23:58:10.150Z,75.62
